Flight Track Log - Related Links

Times and Time Zones

All times are in EDT time to prevent confusion due to time zone crossing. See the UAL3741 flight status page for this flight to view local times or setup timezone preferences in your user account.

Time Position Orientation Groundspeed Altitude Reporting Facility
EDT Latitude Longitude Course Direction KTS MPH feet Rate Location/Type
Sun 01:54:42 PM 42.9333 -78.7500 275° West 175 201 1,400  Level Buffalo TRACON
Sun 01:55:54 PM 42.9000 -78.8333 241° Southwest 215 247 4,100 2,364 Climbing Buffalo TRACON
Sun 01:56:54 PM 42.9167 -78.9167 285° West 242 278 6,600 2,550 Climbing Buffalo TRACON
Sun 01:57:54 PM 42.9333 -79.0167 283° West 275 316 9,200 2,300 Climbing Buffalo TRACON
Sun 01:58:54 PM 42.9500 -79.1167 283° West 287 330 11,200 2,139 Climbing Buffalo TRACON
Sun 01:59:49 PM 42.9833 -79.2000 299° West 304 350 13,300 2,100 Climbing Buffalo TRACON
Sun 02:00:00 PM 42.9695 -79.5471 275° West  Level FlightAware
Sun 02:00:54 PM 42.9833 -79.3333 270° West 329 379 15,400  Level Buffalo TRACON
Sun 02:01:49 PM 42.9833 -79.4500 270° West 337 388 17,100 1,568 Climbing Buffalo TRACON
Sun 02:02:22 PM 42.9914 -79.5097 280° West 339 390 17,700 1,705 Climbing Cleveland Center
Sun 02:03:24 PM 42.9956 -79.6436 272° West 352 405 19,800 2,019 Climbing Cleveland Center
Sun 02:04:09 PM 42.9833 -79.7500 261° West 350 403 21,300 1,829 Climbing Toronto Center
Sun 02:05:09 PM 43.0000 -79.8833 280° West 360 414 23,000 1,600 Climbing Toronto Center
Sun 02:06:09 PM 43.0000 -80.0167 270° West 370 426 24,500 1,350 Climbing Toronto Center
Sun 02:07:09 PM 43.0000 -80.1500 270° West 380 437 25,700 1,300 Climbing Toronto Center
Sun 02:08:09 PM 43.0167 -80.3167 278° West 390 449 27,100 1,250 Climbing Toronto Center
Sun 02:09:09 PM 43.0167 -80.4833 270° West 390 449 28,200 1,000 Climbing Toronto Center
Sun 02:10:09 PM 43.0167 -80.6167 270° West 400 460 29,100 1,000 Climbing Toronto Center
Sun 02:11:09 PM 43.0333 -80.8000 277° West 410 472 30,200 950 Climbing Toronto Center
Sun 02:12:09 PM 43.0167 -80.9333 260° West 420 483 31,000 900 Climbing Toronto Center
Sun 02:13:09 PM 43.0167 -81.1167 270° West 430 495 32,000 500 Climbing Toronto Center
Sun 02:14:09 PM 43.0167 -81.2667 270° West 430 495 32,000  Level Toronto Center
Sun 02:15:09 PM 43.0167 -81.4333 270° West 420 483 32,000  Level Toronto Center
Sun 02:16:09 PM 43.0167 -81.6000 270° West 430 495 32,000  Level Toronto Center
Sun 02:17:09 PM 43.0167 -81.7500 270° West 440 506 32,000  Level Toronto Center
Sun 02:18:09 PM 43.0000 -81.9333 263° West 440 506 32,000  Level Toronto Center
Sun 02:19:09 PM 43.0000 -82.1000 270° West 440 506 32,000  Level Toronto Center
Sun 02:20:09 PM 43.0000 -82.2500 270° West 440 506 32,000  Level Toronto Center
Sun 02:21:09 PM 43.0000 -82.4333 270° West 440 506 32,000  Level Toronto Center
Sun 02:22:09 PM 43.0000 -82.6000 270° West 440 506 32,000  Level Toronto Center
Sun 02:23:04 PM 43.0022 -82.7389 271° West 437 503 32,000  Level Cleveland Center
Sun 02:24:06 PM 42.9969 -82.9031 268° West 437 503 32,000  Level Cleveland Center
Sun 02:25:08 PM 42.9922 -83.0672 268° West 437 503 32,000  Level Cleveland Center
Sun 02:26:10 PM 42.9858 -83.2297 267° West 436 502 32,000  Level Cleveland Center
Sun 02:27:12 PM 42.9794 -83.4242 267° West 431 496 32,000  Level Cleveland Center
Sun 02:28:15 PM 42.9733 -83.5844 267° West 431 496 32,000  Level Cleveland Center
Sun 02:29:17 PM 42.9678 -83.7456 267° West 430 495 32,000  Level Cleveland Center
Sun 02:30:19 PM 42.9522 -83.9047 262° West 427 491 32,000  Level Cleveland Center
Sun 02:31:21 PM 42.9369 -84.0600 262° West 419 482 32,000  Level Cleveland Center
Sun 02:32:23 PM 42.9189 -84.2353 262° West 396 456 32,000  Level Cleveland Center
Sun 02:33:25 PM 42.9053 -84.3742 262° West 391 450 32,000  Level Cleveland Center
Sun 02:34:27 PM 42.8908 -84.5233 263° West 395 455 32,000  Level Cleveland Center
Sun 02:35:29 PM 42.8758 -84.6706 262° West 395 455 32,000  Level Cleveland Center
Sun 02:36:31 PM 42.8578 -84.8467 262° West 394 453 32,000  Level Cleveland Center
Sun 02:37:33 PM 42.8425 -84.9906 262° West 390 449 32,000  Level Cleveland Center
Sun 02:38:36 PM 42.8264 -85.1350 261° West 387 445 32,000  Level Cleveland Center
Sun 02:39:38 PM 42.8108 -85.2781 262° West 385 443 32,000  Level Cleveland Center
Sun 02:40:40 PM 42.7956 -85.4200 262° West 382 440 32,000 -484 Level Cleveland Center
Sun 02:41:42 PM 42.7750 -85.5589 259° West 377 434 31,000 -968 Descending Cleveland Center
Sun 02:42:44 PM 42.7503 -85.6950 256° West 374 430 30,000 -1,065 Descending Cleveland Center
Sun 02:43:46 PM 42.7219 -85.8550 256° West 364 419 28,800 -968 Descending Cleveland Center
Sun 02:44:48 PM 42.6983 -85.9808 256° West 346 398 28,000 -677 Descending Cleveland Center
Sun 02:45:50 PM 42.6828 -86.1031 260° West 334 384 27,400 -774 Descending Cleveland Center
Sun 02:46:52 PM 42.7619 -86.1686 329° Northwest 367 422 26,400 -672 Descending Cleveland Center
Sun 02:47:55 PM 42.8336 -86.0786 43° Northeast 376 433 26,000 -531 Descending Cleveland Center
Sun 02:49:19 PM 42.8694 -85.8889 75° East 376 433 25,100 -816 Descending Chicago Center
Sun 02:50:22 PM 42.8900 -85.7247 80° East 377 434 24,000 -624 Descending Chicago Center
Sun 02:51:24 PM 42.8283 -85.6400 135° Southeast 336 387 23,800 -581 Descending Chicago Center
Sun 02:52:26 PM 42.7564 -85.6878 206° Southwest 307 353 22,800 -871 Descending Chicago Center
Sun 02:53:28 PM 42.7339 -85.7981 255° West 305 351 22,000 -726 Descending Chicago Center
Sun 02:54:30 PM 42.7819 -85.8900 305° West 325 374 21,300 -823 Descending Chicago Center
Sun 02:55:32 PM 42.8569 -85.9725 321° Northwest 342 394 20,300 -629 Descending Chicago Center
Sun 02:56:34 PM 42.9408 -86.0797 317° Northwest 344 396 20,000 -145 Descending Chicago Center
Sun 02:57:36 PM 42.9156 -86.1808 251° West 305 351 20,000  Level Chicago Center
Sun 02:58:39 PM 42.8314 -86.1894 184° South 314 361 20,000  Level Chicago Center
Sun 02:59:41 PM 42.7436 -86.1875 179° South 315 362 20,000  Level Chicago Center
Sun 03:00:43 PM 42.6550 -86.1878 180° South 317 365 20,000  Level Chicago Center
Sun 03:01:45 PM 42.5669 -86.1894 181° South 317 365 20,000  Level Chicago Center
Sun 03:02:47 PM 42.5289 -86.2842 241° Southwest 294 338 20,000 -387 Level Chicago Center
Sun 03:03:49 PM 42.5936 -86.3733 315° West 323 372 19,200 -919 Descending Chicago Center
Sun 03:04:51 PM 42.6200 -86.4814 288° West 296 341 18,100 -1,306 Descending Chicago Center
Sun 03:05:53 PM 42.6389 -86.5911 283° West 294 338 16,500 -1,488 Descending Chicago Center
Sun 03:06:56 PM 42.6581 -86.6975 284° West 290 334 15,000 -1,488 Descending Chicago Center
Sun 03:07:58 PM 42.6789 -86.7994 286° West 280 322 13,400 -1,597 Descending Chicago Center
Sun 03:09:00 PM 42.6958 -86.9206 281° West 266 306 11,700 -1,306 Descending Chicago Center
Sun 03:10:02 PM 42.6506 -86.9947 230° Southwest 259 298 10,700 -968 Descending Chicago Center
Sun 03:11:04 PM 42.6044 -87.0592 226° Southwest 240 276 9,700 -823 Descending Chicago Center
Sun 03:12:06 PM 42.5622 -87.1122 223° Southwest 208 239 9,000 -339 Descending Chicago Center
Sun 03:13:08 PM 42.5219 -87.1653 224° Southwest 205 236 9,000  Level Chicago Center
Sun 03:14:10 PM 42.4800 -87.2178 223° Southwest 205 236 9,000  Level Chicago Center
Sun 03:15:12 PM 42.4308 -87.2800 223° Southwest 203 234 9,000  Level Chicago Center
Sun 03:16:15 PM 42.3958 -87.3389 231° Southwest 203 234 9,000  Level Chicago Center
Sun 03:17:17 PM 42.3717 -87.4158 247° West 205 236 9,000  Level Chicago Center
Sun 03:18:19 PM 42.3669 -87.4925 265° West 211 243 9,000 -194 Level Chicago Center
Sun 03:19:21 PM 42.3722 -87.5722 275° West 213 245 8,600 -774 Descending Chicago Center
Sun 03:20:23 PM 42.3294 -87.5844 192° South 183 211 7,400 -774 Descending Chicago Center
Sun 03:21:25 PM 42.2831 -87.5878 183° South 161 185 7,000 -194 Descending Chicago Center
Sun 03:22:27 PM 42.2419 -87.6256 214° Southwest 164 189 7,000 -480 Level Chicago Center
Sun 03:23:30 PM 42.2075 -87.6639 220° Southwest 162 186 6,000 -960 Descending Chicago Center
Sun 03:24:32 PM 42.1706 -87.7075 221° Southwest 164 189 5,000 -919 Descending Chicago Center
Sun 03:25:34 PM 42.1347 -87.7431 216° Southwest 161 185 4,100 -871 Descending Chicago Center
Sun 03:26:36 PM 42.0972 -87.7867 221° Southwest 173 199 3,200 -919 Descending Chicago Center
Sun 03:27:38 PM 42.0575 -87.8303 219° Southwest 174 200 2,200 -871 Descending Chicago Center
Sun 03:28:40 PM 42.0281 -87.8625 219° Southwest 139 160 1,400 -677 Descending Chicago Center
Sun 03:29:42 PM 42.0033 -87.8900 220° Southwest 121 139 800 -581 Descending Chicago Center
Sun 03:31:00 PM 41.9793 -87.9074 206° Southwest  Level Estimated

Login

Don't have an account? Register now (free) for customized features, flight alerts, and more!